Time;durP1;ratioP1;P1;durP2;ratioP2;P2;SDS_P1;SDS_P2;PMS_P1;PMS_P2;Temp;Humidity;BMP_temperature;BMP_pressure;BME280_temperature;BME280_humidity;BME280_pressure;Samples;Min_cycle;Max_cycle;Signal;HPM_P1;HPM_P2
2022/03/30 00:02:18;;;;;;;4.03;2.58;;;;;;;19.24;43.60;100001.75;5040764;28;20732;-39
2022/03/30 00:04:43;;;;;;;4.60;2.40;;;;;;;19.25;43.70;99994.63;5044803;28;20071;-39
2022/03/30 00:07:09;;;;;;;5.00;3.13;;;;;;;19.25;43.72;100000.72;5043797;28;20182;-38
2022/03/30 00:09:35;;;;;;;5.18;2.80;;;;;;;19.24;43.66;99991.19;5042520;28;20098;-38
2022/03/30 00:12:00;;;;;;;6.07;3.10;;;;;;;19.22;43.90;99982.66;5046059;28;20094;-39
2022/03/30 00:14:26;;;;;;;6.35;2.55;;;;;;;19.23;43.69;99981.63;5041697;28;20112;-39
2022/03/30 00:16:52;;;;;;;7.30;3.10;;;;;;;19.22;43.72;99977.38;5059642;28;20021;-38
2022/03/30 00:19:18;;;;;;;5.43;2.95;;;;;;;19.21;43.69;99973.94;5044383;28;20029;-38
2022/03/30 00:21:44;;;;;;;4.00;3.03;;;;;;;19.21;43.75;99970.47;5044854;28;20440;-38
2022/03/30 00:24:09;;;;;;;4.50;3.20;;;;;;;19.21;43.72;99965.19;5041546;28;20109;-38
2022/03/30 00:26:35;;;;;;;4.88;2.40;;;;;;;19.21;43.70;99973.13;5052245;28;20092;-38
2022/03/30 00:29:01;;;;;;;3.03;2.17;;;;;;;19.21;43.64;99967.84;5044624;28;21427;-37
2022/03/30 00:31:26;;;;;;;3.45;2.40;;;;;;;19.22;43.63;99953.63;5045104;28;20219;-38
2022/03/30 00:33:52;;;;;;;3.92;2.60;;;;;;;19.22;43.52;99950.97;5043189;28;20037;-38
2022/03/30 00:36:19;;;;;;;4.57;2.08;;;;;;;19.22;43.53;99953.63;5047927;28;20025;-38
2022/03/30 00:38:45;;;;;;;2.95;2.10;;;;;;;19.22;43.70;99943.06;5043397;28;20032;-38
2022/03/30 00:41:10;;;;;;;3.53;2.38;;;;;;;19.21;43.61;99939.59;5033715;28;20365;-39
2022/03/30 00:43:35;;;;;;;3.83;2.33;;;;;;;19.21;43.58;99941.44;5044368;28;20476;-38
2022/03/30 00:46:01;;;;;;;5.43;2.38;;;;;;;19.22;43.58;99928.00;5044935;28;20033;-38
2022/03/30 00:48:27;;;;;;;3.05;2.13;;;;;;;19.24;43.49;99935.72;5050942;28;20457;-39
2022/03/30 00:50:52;;;;;;;3.03;1.85;;;;;;;19.23;43.57;99934.09;5043815;28;20033;-38
2022/03/30 00:53:18;;;;;;;3.53;2.10;;;;;;;19.23;43.69;99926.19;5028524;28;20029;-38
2022/03/30 00:55:43;;;;;;;3.63;1.85;;;;;;;19.23;43.58;99927.00;5042698;28;20093;-38
2022/03/30 00:58:09;;;;;;;3.97;2.20;;;;;;;19.23;43.59;99923.53;5050911;28;20510;-38
2022/03/30 01:00:35;;;;;;;3.35;2.05;;;;;;;19.23;43.63;99912.97;5051995;28;20029;-38
2022/03/30 01:03:00;;;;;;;4.07;2.25;;;;;;;19.24;43.53;99909.31;5041652;28;20087;-38
2022/03/30 01:05:26;;;;;;;3.53;2.03;;;;;;;19.24;43.60;99906.69;5046773;28;20501;-38
2022/03/30 01:07:51;;;;;;;3.80;2.17;;;;;;;19.24;43.55;99901.38;5050779;28;20036;-38
2022/03/30 01:10:18;;;;;;;4.25;2.83;;;;;;;19.26;43.60;99906.47;5047727;28;20077;-38
2022/03/30 01:12:44;;;;;;;3.72;2.38;;;;;;;19.25;43.75;99900.38;5046620;28;20074;-38
2022/03/30 01:15:12;;;;;;;4.65;2.33;;;;;;;19.25;43.51;99900.38;5052289;28;20032;-38
2022/03/30 01:17:38;;;;;;;4.50;2.13;;;;;;;19.25;43.60;99899.56;5062697;28;20306;-38
2022/03/30 01:20:11;;;;;;;5.10;2.20;;;;;;;19.23;43.53;99902.41;5047661;28;20039;-38
2022/03/30 01:22:36;;;;;;;4.80;2.00;;;;;;;19.23;43.61;99897.13;5045906;28;20918;-38
2022/03/30 01:25:03;;;;;;;3.42;2.30;;;;;;;19.22;43.60;99892.88;5054363;28;20336;-38
2022/03/30 01:27:28;;;;;;;3.15;2.40;;;;;;;19.21;43.62;99888.63;5050107;28;20025;-38
2022/03/30 01:32:39;;;;;;;2.95;2.00;;;;;;;19.20;43.62;99892.28;5046141;28;20135;-38
2022/03/30 01:35:07;;;;;;;2.90;1.52;;;;;;;19.19;43.76;99896.75;5048041;28;20507;-38
2022/03/30 01:37:32;;;;;;;3.90;2.20;;;;;;;19.19;43.67;99891.47;5048883;28;20025;-38
2022/03/30 01:40:00;;;;;;;3.70;1.88;;;;;;;19.19;43.68;99885.38;5048700;28;20412;-38
2022/03/30 01:42:27;;;;;;;3.75;1.55;;;;;;;19.20;43.61;99884.34;5061502;28;20021;-38
2022/03/30 01:44:53;;;;;;;4.05;1.67;;;;;;;19.18;43.66;99887.22;5045690;28;20033;-38
2022/03/30 01:47:19;;;;;;;4.43;1.75;;;;;;;19.19;43.61;99882.75;5041112;28;20028;-40
2022/03/30 01:49:45;;;;;;;2.92;1.40;;;;;;;19.19;43.50;99869.53;5039574;28;20041;-38
2022/03/30 01:52:12;;;;;;;3.08;2.08;;;;;;;19.19;43.72;99865.06;5038638;28;20112;-39
2022/03/30 01:54:39;;;;;;;2.72;1.45;;;;;;;19.19;43.60;99854.50;5040454;28;20059;-39
2022/03/30 01:57:06;;;;;;;2.55;1.65;;;;;;;19.19;43.57;99854.50;5039103;28;20079;-39
2022/03/30 01:59:33;;;;;;;4.88;1.73;;;;;;;19.18;43.49;99846.78;5037532;28;20021;-39
2022/03/30 02:01:59;;;;;;;4.80;1.90;;;;;;;19.18;43.48;99836.22;5039528;28;20133;-38
2022/03/30 02:04:24;;;;;;;5.47;2.10;;;;;;;19.17;43.64;99835.41;5038231;28;20047;-38
2022/03/30 02:06:51;;;;;;;3.13;1.98;;;;;;;19.17;43.58;99821.41;5044208;28;20033;-38
2022/03/30 02:09:17;;;;;;;2.28;1.67;;;;;;;19.17;43.66;99818.78;5037958;28;20033;-38
2022/03/30 02:11:42;;;;;;;4.10;1.70;;;;;;;19.15;43.65;99804.97;5490119;22;20139;-37
2022/03/30 02:14:08;;;;;;;5.10;2.05;;;;;;;19.16;43.71;99806.59;5068703;28;20047;-38
2022/03/30 02:16:33;;;;;;;2.55;1.90;;;;;;;19.14;43.66;99795.44;5068570;28;20032;-38
2022/03/30 02:18:59;;;;;;;4.45;2.10;;;;;;;19.14;43.59;99792.78;5069088;28;20028;-37
2022/03/30 02:21:25;;;;;;;4.90;1.42;;;;;;;19.13;43.85;99781.44;5068372;28;20395;-38
2022/03/30 02:23:51;;;;;;;3.67;1.50;;;;;;;19.13;43.56;99780.63;5068700;28;20021;-38
2022/03/30 02:26:18;;;;;;;4.20;1.63;;;;;;;19.12;43.83;99776.34;5068468;28;20487;-38
2022/03/30 02:28:51;;;;;;;4.45;1.55;;;;;;;19.12;43.75;99773.72;5068829;28;20098;-38
2022/03/30 02:31:17;;;;;;;7.85;2.38;;;;;;;19.11;43.68;99772.09;5068426;28;20322;-37
2022/03/30 02:33:43;;;;;;;6.25;1.85;;;;;;;19.10;43.66;99758.09;5068137;28;20021;-38
2022/03/30 02:36:08;;;;;;;4.70;1.85;;;;;;;19.10;43.77;99760.72;5068187;28;20111;-38
2022/03/30 02:38:34;;;;;;;4.75;1.60;;;;;;;19.09;43.62;99745.13;5068113;28;20078;-38
2022/03/30 02:41:00;;;;;;;5.35;1.88;;;;;;;19.09;43.77;99753.03;5068205;28;20020;-38
2022/03/30 02:43:25;;;;;;;3.65;1.50;;;;;;;19.10;43.82;99754.66;5068530;28;20407;-38
2022/03/30 02:45:51;;;;;;;3.25;1.35;;;;;;;19.09;43.87;99750.38;5067978;28;20028;-38
2022/03/30 02:48:19;;;;;;;4.93;2.03;;;;;;;19.08;43.67;99746.13;5068012;28;20068;-38
2022/03/30 02:50:50;;;;;;;3.13;1.90;;;;;;;19.08;43.80;99741.66;5067912;28;20024;-38
2022/03/30 02:53:16;;;;;;;3.15;1.50;;;;;;;19.09;43.62;99745.91;5067817;28;20113;-38
2022/03/30 02:55:42;;;;;;;2.20;1.40;;;;;;;19.10;43.63;99741.44;5067872;28;20045;-38
2022/03/30 02:58:09;;;;;;;3.60;1.48;;;;;;;19.10;43.55;99739.63;5067939;28;20373;-38
2022/03/30 03:00:35;;;;;;;2.75;1.52;;;;;;;19.10;43.61;99738.81;5067684;28;20032;-38
2022/03/30 03:03:02;;;;;;;2.20;1.38;;;;;;;19.11;43.53;99729.84;5067535;28;20166;-37
2022/03/30 03:05:31;;;;;;;4.45;1.70;;;;;;;19.11;43.53;99733.31;5067480;28;20032;-38
2022/03/30 03:07:58;;;;;;;2.78;1.80;;;;;;;19.12;43.62;99739.41;5068040;28;20389;-38
2022/03/30 03:10:24;;;;;;;4.95;1.77;;;;;;;19.12;43.53;99732.28;5067358;28;20047;-38
2022/03/30 03:12:49;;;;;;;2.47;1.67;;;;;;;19.12;43.57;99736.75;5067371;28;20041;-38
2022/03/30 03:15:15;;;;;;;3.42;1.70;;;;;;;19.11;43.54;99735.94;5067580;28;20044;-37
2022/03/30 03:17:40;;;;;;;2.90;1.50;;;;;;;19.13;43.41;99733.09;5067532;28;20104;-38
2022/03/30 03:20:06;;;;;;;3.25;1.30;;;;;;;19.12;43.60;99731.47;5067167;28;20107;-38
2022/03/30 03:22:31;;;;;;;2.30;1.27;;;;;;;19.13;43.60;99733.09;5067409;28;20032;-38
2022/03/30 03:24:57;;;;;;;4.00;1.73;;;;;;;19.13;43.60;99733.09;5067479;28;20502;-38
2022/03/30 03:27:22;;;;;;;3.67;1.63;;;;;;;19.13;43.73;99727.81;5066803;28;20490;-37
2022/03/30 03:29:48;;;;;;;2.47;1.50;;;;;;;19.13;43.67;99731.25;5067255;28;20475;-38
2022/03/30 03:32:13;;;;;;;3.75;1.20;;;;;;;19.14;43.52;99732.06;5067292;28;20028;-38
2022/03/30 03:34:39;;;;;;;5.22;1.67;;;;;;;19.13;43.46;99725.97;5067251;28;20370;-38
2022/03/30 03:37:04;;;;;;;3.33;1.65;;;;;;;19.13;43.49;99728.63;5067188;28;20024;-37
2022/03/30 03:39:30;;;;;;;4.47;1.60;;;;;;;19.13;43.42;99728.63;5067315;28;20582;-38
2022/03/30 03:41:55;;;;;;;1.95;1.10;;;;;;;19.11;43.53;99720.09;5066848;28;20028;-38
2022/03/30 03:44:21;;;;;;;2.47;1.10;;;;;;;19.11;43.39;99720.09;5067341;28;20074;-37
2022/03/30 03:46:46;;;;;;;2.03;1.08;;;;;;;19.10;43.47;99712.41;5066659;28;20032;-38
2022/03/30 03:49:12;;;;;;;1.98;1.00;;;;;;;19.10;43.46;99712.41;5066754;28;20035;-38
2022/03/30 03:51:38;;;;;;;2.08;1.35;;;;;;;19.09;43.45;99716.06;5066742;28;20044;-37
2022/03/30 03:54:04;;;;;;;4.35;1.40;;;;;;;19.09;43.45;99708.16;5066625;28;20029;-37
2022/03/30 03:56:30;;;;;;;2.00;0.90;;;;;;;19.08;43.57;99711.81;5066718;28;20035;-37
2022/03/30 03:58:55;;;;;;;2.90;1.27;;;;;;;19.08;43.54;99709.19;5066976;28;20039;-37
2022/03/30 04:01:21;;;;;;;2.00;1.02;;;;;;;19.06;43.55;99706.75;5048862;28;20403;-37
2022/03/30 04:03:46;;;;;;;3.72;1.17;;;;;;;19.06;43.65;99708.59;5043476;28;20114;-37
2022/03/30 04:06:12;;;;;;;2.25;1.02;;;;;;;19.06;43.66;99708.59;5046070;28;20387;-37
2022/03/30 04:08:37;;;;;;;2.63;1.42;;;;;;;19.08;43.86;99706.53;5057601;28;20028;-39
2022/03/30 04:11:03;;;;;;;6.43;1.52;;;;;;;19.12;44.64;99705.06;5049788;28;20039;-36
2022/03/30 04:13:28;;;;;;;12.02;1.73;;;;;;;19.19;45.64;99703.19;5064644;28;20474;-38
2022/03/30 04:15:53;;;;;;;4.05;2.65;;;;;;;19.27;46.70;99702.91;5058140;28;20028;-39
2022/03/30 04:18:19;;;;;;;4.70;1.52;;;;;;;19.26;46.48;99706.56;5051704;28;20052;-39
2022/03/30 04:20:44;;;;;;;4.97;1.70;;;;;;;19.22;46.03;99700.91;5049438;28;20541;-38
2022/03/30 04:23:11;;;;;;;3.92;1.35;;;;;;;19.21;45.98;99706.41;5063879;28;20067;-38
2022/03/30 04:25:36;;;;;;;3.67;1.55;;;;;;;19.18;45.96;99706.84;5058267;28;20459;-38
2022/03/30 04:28:02;;;;;;;10.90;2.40;;;;;;;19.17;45.69;99692.03;5051267;28;20400;-38
2022/03/30 04:30:28;;;;;;;6.80;1.50;;;;;;;19.16;45.74;99693.06;5065659;28;20048;-38
2022/03/30 04:32:53;;;;;;;7.38;1.52;;;;;;;19.15;45.93;99696.72;5064738;28;20082;-37
2022/03/30 04:35:25;;;;;;;8.35;1.60;;;;;;;19.15;45.55;99694.06;5065734;28;20077;-39
2022/03/30 04:37:54;;;;;;;6.18;1.80;;;;;;;19.13;45.55;99706.69;5056442;28;20151;-38
2022/03/30 04:40:21;;;;;;;4.72;1.88;;;;;;;19.12;45.37;99699.78;5047218;28;20021;-38
2022/03/30 04:42:48;;;;;;;7.38;1.90;;;;;;;19.13;45.45;99699.56;5058643;28;20041;-39
2022/03/30 04:45:13;;;;;;;5.30;1.63;;;;;;;19.13;45.52;99701.41;5055071;22;20567;-39
2022/03/30 04:47:39;;;;;;;6.00;1.80;;;;;;;19.13;45.42;99706.69;5051562;28;20135;-39
2022/03/30 04:50:05;;;;;;;6.97;1.70;;;;;;;19.12;45.45;99699.78;5069364;28;20031;-39
2022/03/30 04:52:32;;;;;;;2.33;1.25;;;;;;;19.11;45.31;99693.72;5070908;28;20024;-39
2022/03/30 04:54:58;;;;;;;6.70;1.45;;;;;;;19.11;45.11;99700.81;5051924;28;20071;-39
2022/03/30 04:57:24;;;;;;;6.15;1.48;;;;;;;19.10;45.15;99696.56;5070269;28;20032;-39
2022/03/30 04:59:49;;;;;;;7.28;1.80;;;;;;;19.10;44.90;99699.19;5051790;28;20033;-39
2022/03/30 05:02:15;;;;;;;5.13;1.73;;;;;;;19.10;44.76;99700.00;5070260;28;20094;-39
2022/03/30 05:04:40;;;;;;;5.07;1.60;;;;;;;19.08;44.83;99696.78;5070204;28;20029;-38
2022/03/30 05:07:05;;;;;;;5.43;2.08;;;;;;;19.08;44.74;99696.78;5069828;28;20463;-39
2022/03/30 05:09:31;;;;;;;3.97;1.40;;;;;;;19.09;44.69;99700.22;5069921;28;20067;-39
2022/03/30 05:11:57;;;;;;;3.58;1.42;;;;;;;19.08;44.71;99696.78;5070149;28;20059;-40
2022/03/30 05:14:22;;;;;;;4.15;1.70;;;;;;;19.08;44.71;99699.41;5070236;28;20087;-39
2022/03/30 05:16:48;;;;;;;3.78;1.27;;;;;;;19.08;44.44;99693.34;5069801;28;20032;-39
2022/03/30 05:19:14;;;;;;;4.03;1.15;;;;;;;19.09;44.42;99700.22;5069799;28;20395;-39
2022/03/30 05:21:39;;;;;;;6.10;1.58;;;;;;;19.09;44.54;99705.50;5069908;28;20032;-39
2022/03/30 05:24:05;;;;;;;4.35;1.77;;;;;;;19.09;44.40;99692.31;5070089;28;20017;-39
2022/03/30 05:26:31;;;;;;;4.25;1.48;;;;;;;19.10;44.36;99707.94;5069390;28;20026;-39
2022/03/30 05:28:56;;;;;;;6.07;1.50;;;;;;;19.11;44.47;99700.81;5051264;28;20029;-39
2022/03/30 05:31:22;;;;;;;3.67;1.00;;;;;;;19.11;44.38;99708.75;5069653;28;20033;-39
2022/03/30 05:33:47;;;;;;;3.47;1.50;;;;;;;19.11;44.22;99692.91;5069683;28;20056;-39
2022/03/30 05:36:13;;;;;;;3.65;1.40;;;;;;;19.10;44.19;99697.38;5069618;28;20078;-39
2022/03/30 05:38:38;;;;;;;3.15;1.40;;;;;;;19.11;44.30;99696.34;5069293;28;20025;-39
2022/03/30 05:41:04;;;;;;;4.30;1.67;;;;;;;19.12;44.38;99705.06;5069310;28;20544;-39
2022/03/30 05:43:30;;;;;;;5.90;1.42;;;;;;;19.12;44.08;99705.06;5069390;28;20024;-39
2022/03/30 05:45:55;;;;;;;3.47;1.60;;;;;;;19.12;44.04;99705.06;5069066;28;20074;-39
2022/03/30 05:48:21;;;;;;;3.85;1.45;;;;;;;19.12;44.16;99705.06;5069109;28;20494;-39
2022/03/30 05:50:47;;;;;;;3.17;1.30;;;;;;;19.12;44.24;99699.78;5068896;28;20020;-39
2022/03/30 05:53:17;;;;;;;2.75;1.30;;;;;;;19.11;44.08;99700.81;5069101;28;20021;-39
2022/03/30 05:55:46;;;;;;;4.78;1.42;;;;;;;19.11;44.09;99699.00;5051515;28;20060;-39
2022/03/30 05:58:13;;;;;;;2.63;1.10;;;;;;;19.09;44.25;99703.69;5068980;28;20032;-39
2022/03/30 06:00:38;;;;;;;4.32;1.63;;;;;;;19.10;44.18;99707.13;5069065;28;20379;-39
2022/03/30 06:03:04;;;;;;;2.75;1.30;;;;;;;19.10;44.02;99704.47;5069146;28;20028;-39
2022/03/30 06:05:30;;;;;;;5.55;1.38;;;;;;;19.08;44.06;99709.97;5069191;28;20171;-39
2022/03/30 06:07:58;;;;;;;3.72;1.40;;;;;;;19.08;44.00;99703.91;5068780;28;20029;-39
2022/03/30 06:10:26;;;;;;;2.80;1.45;;;;;;;19.07;44.03;99707.56;5068722;28;20037;-39
2022/03/30 06:12:51;;;;;;;3.78;1.48;;;;;;;19.05;43.98;99697.22;5069122;28;20034;-39
2022/03/30 06:15:17;;;;;;;4.95;1.85;;;;;;;19.06;43.98;99698.03;5068805;28;20119;-39
2022/03/30 06:17:42;;;;;;;3.78;1.48;;;;;;;19.03;43.98;99709.00;5068561;28;20115;-39
2022/03/30 06:20:10;;;;;;;3.83;1.75;;;;;;;19.03;43.95;99706.38;5068896;28;20025;-39
2022/03/30 06:22:36;;;;;;;4.78;1.40;;;;;;;19.03;43.96;99704.53;5068722;28;20024;-39
2022/03/30 06:25:02;;;;;;;3.35;0.95;;;;;;;19.05;44.03;99713.06;5068855;28;20414;-39
2022/03/30 06:27:28;;;;;;;3.92;1.15;;;;;;;19.06;43.90;99711.22;5068480;28;20101;-39
2022/03/30 06:29:53;;;;;;;4.18;1.67;;;;;;;19.04;43.87;99708.81;5059188;28;20029;-39
2022/03/30 06:32:19;;;;;;;3.83;1.67;;;;;;;19.04;43.94;99708.81;5048182;28;20087;-40
2022/03/30 06:34:45;;;;;;;5.63;1.63;;;;;;;19.04;44.00;99708.81;5047465;28;20037;-39
2022/03/30 06:37:11;;;;;;;2.58;1.13;;;;;;;19.05;44.08;99706.97;5048670;28;20033;-39
2022/03/30 06:39:36;;;;;;;4.90;1.58;;;;;;;19.03;43.92;99706.38;5047963;28;20685;-40
2022/03/30 06:42:03;;;;;;;3.67;1.05;;;;;;;19.03;44.15;99704.53;5048452;28;20385;-39
2022/03/30 06:44:29;;;;;;;4.93;1.20;;;;;;;19.03;44.13;99711.66;5046735;28;20134;-40
2022/03/30 06:46:54;;;;;;;3.60;1.20;;;;;;;19.02;44.05;99708.22;5048463;28;20029;-39
2022/03/30 06:49:20;;;;;;;5.80;1.60;;;;;;;19.02;43.93;99704.75;5047402;28;20064;-39
2022/03/30 06:51:45;;;;;;;4.55;1.23;;;;;;;19.00;44.08;99701.53;5047870;28;20124;-39
2022/03/30 06:54:10;;;;;;;2.67;1.25;;;;;;;19.00;44.02;99706.81;5047186;28;20435;-39
2022/03/30 06:56:36;;;;;;;2.92;1.45;;;;;;;18.99;44.06;99706.00;5047589;28;20406;-40
2022/03/30 06:59:01;;;;;;;2.50;1.33;;;;;;;18.99;44.88;99703.38;5047438;28;20155;-39
2022/03/30 07:01:27;;;;;;;5.15;1.95;;;;;;;19.04;45.40;99702.72;5048076;28;20064;-38
2022/03/30 07:03:52;;;;;;;4.85;1.77;;;;;;;19.07;45.98;99708.38;5045792;28;20079;-39
2022/03/30 07:06:18;;;;;;;4.00;2.33;;;;;;;19.09;46.50;99706.31;5048225;28;20021;-39
2022/03/30 07:11:27;;;;;;;4.15;2.15;;;;;;;19.09;46.82;99714.25;5047193;28;20067;-41
2022/03/30 07:13:56;;;;;;;6.57;1.88;;;;;;;19.08;47.15;99711.81;5028356;28;20476;-42
2022/03/30 07:16:22;;;;;;;4.80;1.77;;;;;;;19.08;47.07;99714.44;5046838;28;20557;-40
2022/03/30 07:18:49;;;;;;;3.75;1.20;;;;;;;19.07;47.32;99715.47;5046921;28;20037;-41
2022/03/30 07:21:15;;;;;;;7.85;1.42;;;;;;;19.06;47.24;99711.22;5047288;28;20079;-40
2022/03/30 07:23:40;;;;;;;1.95;0.90;;;;;;;19.05;47.08;99718.34;5029724;28;20037;-39
2022/03/30 07:26:06;;;;;;;3.78;1.20;;;;;;;19.04;47.04;99721.19;5047581;28;20033;-40
2022/03/30 07:28:32;;;;;;;3.20;1.30;;;;;;;19.02;46.95;99715.31;5047482;28;20140;-40
2022/03/30 07:30:57;;;;;;;2.45;1.38;;;;;;;19.01;46.75;99724.25;5046518;28;20057;-40
2022/03/30 07:33:23;;;;;;;4.97;1.67;;;;;;;19.02;46.81;99720.59;5046200;28;20044;-40
2022/03/30 07:35:49;;;;;;;7.75;1.73;;;;;;;19.04;47.39;99719.34;5046149;28;20495;-41
2022/03/30 07:38:20;;;;;;;4.55;1.85;;;;;;;19.07;47.58;99726.03;5046242;28;20024;-41
2022/03/30 07:40:47;;;;;;;4.40;1.60;;;;;;;19.08;47.57;99728.47;5047083;28;20068;-40
2022/03/30 07:43:14;;;;;;;2.97;1.50;;;;;;;19.09;47.07;99731.91;5047111;28;20036;-41
2022/03/30 07:45:40;;;;;;;6.38;1.40;;;;;;;19.07;46.43;99728.69;5047030;28;20566;-42
2022/03/30 07:48:08;;;;;;;1.63;0.73;;;;;;;19.08;46.20;99735.56;5046399;28;20053;-40
2022/03/30 07:50:34;;;;;;;4.25;0.93;;;;;;;19.08;46.03;99730.28;5046300;28;20511;-41
2022/03/30 07:53:00;;;;;;;2.17;1.20;;;;;;;19.09;45.77;99731.91;5047348;28;20064;-40
2022/03/30 07:55:28;;;;;;;1.73;1.30;;;;;;;19.07;45.65;99724.19;5046326;28;20035;-40
2022/03/30 07:57:54;;;;;;;4.65;1.10;;;;;;;19.09;45.47;99732.72;5045283;28;20633;-41
2022/03/30 08:00:21;;;;;;;2.28;1.10;;;;;;;19.09;45.36;99731.91;5045868;28;20023;-42
2022/03/30 08:02:48;;;;;;;3.88;1.50;;;;;;;19.09;45.37;99726.63;5046138;28;20041;-40
2022/03/30 08:05:15;;;;;;;4.55;1.40;;;;;;;19.09;45.27;99731.91;5045295;28;20049;-41
2022/03/30 08:07:45;;;;;;;7.70;1.98;;;;;;;19.10;45.17;99736.16;5046841;28;20032;-40
2022/03/30 08:10:12;;;;;;;9.20;1.20;;;;;;;19.09;45.17;99729.28;5046670;28;20061;-42
2022/03/30 08:12:40;;;;;;;5.22;1.40;;;;;;;19.09;45.02;99739.84;5046424;28;20033;-40
2022/03/30 08:15:06;;;;;;;4.28;1.48;;;;;;;19.07;45.20;99726.84;5045589;28;20024;-40
2022/03/30 08:17:31;;;;;;;5.22;1.33;;;;;;;19.06;45.20;99727.88;5045168;28;20618;-40
2022/03/30 08:19:59;;;;;;;3.92;1.40;;;;;;;19.07;45.25;99733.97;5046117;28;20132;-40
2022/03/30 08:22:28;;;;;;;6.70;1.55;;;;;;;19.06;45.30;99737.63;5046706;28;20032;-40
2022/03/30 08:25:07;;;;;;;6.00;1.60;;;;;;;19.02;45.17;99725.88;5045536;28;20029;-40
2022/03/30 08:27:34;;;;;;;4.03;1.10;;;;;;;19.04;45.31;99726.47;5045555;28;20040;-40
2022/03/30 08:30:00;;;;;;;5.15;1.33;;;;;;;19.03;45.28;99725.66;5046792;28;20033;-40
2022/03/30 08:32:26;;;;;;;2.85;1.70;;;;;;;19.03;45.44;99727.50;5044976;28;20387;-40
2022/03/30 08:34:54;;;;;;;7.22;1.30;;;;;;;19.02;45.38;99728.53;5046132;28;20037;-40
2022/03/30 08:37:20;;;;;;;6.30;1.42;;;;;;;19.01;45.30;99729.53;5046767;28;20431;-40
2022/03/30 08:39:46;;;;;;;3.95;1.77;;;;;;;19.00;45.32;99731.38;5046469;28;20116;-40
2022/03/30 08:42:21;;;;;;;3.22;1.17;;;;;;;19.00;45.31;99726.09;5046739;28;20757;-40
2022/03/30 08:44:49;;;;;;;4.00;1.25;;;;;;;18.99;45.34;99719.19;5045565;28;20069;-40
2022/03/30 08:47:14;;;;;;;3.20;1.40;;;;;;;19.00;45.32;99720.00;5046420;28;20504;-40
2022/03/30 08:49:42;;;;;;;2.20;1.35;;;;;;;19.01;45.29;99721.63;5045444;28;20060;-40
2022/03/30 08:52:10;;;;;;;3.20;1.05;;;;;;;19.00;45.38;99720.81;5046270;28;20514;-43
2022/03/30 08:54:36;;;;;;;3.92;1.17;;;;;;;19.01;45.38;99716.34;5045820;28;20396;-40
2022/03/30 08:57:03;;;;;;;3.13;1.05;;;;;;;19.01;45.18;99718.97;5046548;28;20031;-41
2022/03/30 08:59:29;;;;;;;4.80;0.95;;;;;;;19.01;45.17;99714.50;5046235;28;20032;-40
2022/03/30 09:01:56;;;;;;;2.47;1.40;;;;;;;19.01;45.09;99713.69;5046768;28;20025;-40
2022/03/30 09:04:21;;;;;;;5.88;1.58;;;;;;;19.01;45.11;99709.22;5043362;28;20433;-40
2022/03/30 09:06:56;;;;;;;2.95;1.73;;;;;;;18.99;44.96;99706.00;5041138;28;20127;-41
2022/03/30 09:09:41;;;;;;;7.35;1.92;;;;;;;18.96;45.31;99711.72;5040849;28;20035;-40
2022/03/30 09:12:11;;;;;;;2.22;1.42;;;;;;;18.96;45.31;99703.00;5045579;28;20510;-41
2022/03/30 09:14:39;;;;;;;2.67;1.05;;;;;;;18.97;45.53;99701.97;5041223;28;20575;-40
2022/03/30 09:17:07;;;;;;;6.15;1.90;;;;;;;18.96;45.80;99700.34;5036700;28;20100;-44
2022/03/30 09:19:36;;;;;;;4.63;1.45;;;;;;;18.96;46.00;99700.34;5044335;28;20467;-40
2022/03/30 09:22:04;;;;;;;6.40;1.42;;;;;;;18.95;46.20;99693.44;5043261;28;20036;-42
2022/03/30 09:24:35;;;;;;;2.80;1.38;;;;;;;18.95;45.83;99688.19;5040678;28;20519;-43
2022/03/30 09:27:03;;;;;;;7.22;1.80;;;;;;;18.96;46.01;99681.88;5045051;28;20488;-41
2022/03/30 09:29:31;;;;;;;8.30;1.85;;;;;;;18.94;45.69;99686.56;5048869;28;20032;-40
2022/03/30 09:32:02;;;;;;;3.95;1.73;;;;;;;18.92;45.82;99678.84;5047475;28;20044;-41
2022/03/30 09:34:33;;;;;;;3.15;2.00;;;;;;;18.92;46.22;99678.84;5047152;28;20263;-40
2022/03/30 09:36:59;;;;;;;12.13;2.47;;;;;;;18.93;46.06;99679.66;5044413;28;20103;-41
2022/03/30 09:39:34;;;;;;;4.93;2.28;;;;;;;18.91;45.93;99669.31;5041057;28;20117;-40
2022/03/30 09:42:00;;;;;;;6.68;1.75;;;;;;;18.92;45.83;99675.41;5042026;28;20043;-40
2022/03/30 09:44:31;;;;;;;4.55;2.10;;;;;;;18.92;45.78;99664.84;5049497;28;20487;-40
2022/03/30 09:47:05;;;;;;;2.90;1.85;;;;;;;18.92;45.76;99664.84;5049769;28;20378;-39
2022/03/30 09:49:45;;;;;;;4.60;1.70;;;;;;;18.90;45.80;99660.59;5046995;28;20041;-40
2022/03/30 09:52:11;;;;;;;7.53;1.85;;;;;;;18.90;45.69;99659.81;5048200;28;20147;-42
2022/03/30 09:54:43;;;;;;;6.38;1.45;;;;;;;18.90;45.62;99652.69;5049304;28;20057;-42
2022/03/30 09:57:14;;;;;;;3.55;1.42;;;;;;;18.89;45.53;99650.28;5049699;28;20025;-40
2022/03/30 10:00:09;;;;;;;4.45;1.60;;;;;;;18.87;45.55;99642.59;5049375;28;20040;-41
2022/03/30 10:02:36;;;;;;;3.10;1.33;;;;;;;18.90;45.46;99641.34;5048546;28;20031;-41
2022/03/30 10:05:03;;;;;;;4.00;1.65;;;;;;;18.90;45.34;99636.84;5049187;28;20317;-40
2022/03/30 10:07:29;;;;;;;5.50;1.77;;;;;;;18.93;45.31;99632.16;5049123;28;20037;-41
2022/03/30 10:09:57;;;;;;;4.22;1.73;;;;;;;18.93;45.31;99625.03;5048813;28;20029;-40
2022/03/30 10:12:23;;;;;;;2.97;1.52;;;;;;;18.94;45.24;99631.13;5048577;28;20029;-43
2022/03/30 10:14:49;;;;;;;4.72;1.30;;;;;;;18.94;45.20;99616.09;5029800;28;20029;-40
2022/03/30 10:17:15;;;;;;;5.70;1.88;;;;;;;18.94;45.17;99612.66;5046449;28;20017;-42
2022/03/30 10:22:43;;;;;;;5.13;1.88;;;;;;;18.94;45.18;99600.25;5050101;22;20392;-40
2022/03/30 10:25:17;;;;;;;4.57;1.88;;;;;;;18.95;45.16;99598.44;5048402;28;20055;-41
2022/03/30 10:28:08;;;;;;;4.35;2.08;;;;;;;18.92;45.45;99593.59;5049012;28;20047;-42
2022/03/30 10:30:35;;;;;;;9.30;2.70;;;;;;;18.95;45.31;99598.44;5019515;28;20123;-42
2022/03/30 10:33:03;;;;;;;3.90;2.28;;;;;;;18.96;45.27;99594.75;5045994;28;20032;-43
2022/03/30 10:35:48;;;;;;;4.95;2.50;;;;;;;18.94;45.45;99586.25;5041839;28;20440;-45
2022/03/30 10:38:16;;;;;;;6.45;2.80;;;;;;;18.95;45.47;99582.59;5041058;28;20037;-41
2022/03/30 10:40:43;;;;;;;8.45;3.42;;;;;;;18.94;45.31;99580.97;5046775;28;20044;-43
2022/03/30 10:43:11;;;;;;;9.70;3.15;;;;;;;18.94;45.59;99581.78;5057115;28;20055;-42
2022/03/30 10:46:00;;;;;;;5.93;2.83;;;;;;;18.93;45.61;99577.53;5047965;28;20147;-41
2022/03/30 10:48:28;;;;;;;11.40;3.95;;;;;;;18.90;45.73;99573.50;5045657;28;20041;-41
2022/03/30 10:50:55;;;;;;;7.15;4.25;;;;;;;18.89;45.64;99564.00;5046954;28;20033;-41
2022/03/30 10:53:38;;;;;;;7.82;3.63;;;;;;;18.89;45.54;99563.19;5045254;28;20049;-41
2022/03/30 10:56:15;;;;;;;9.63;4.18;;;;;;;18.87;45.78;99567.88;5041301;28;20028;-41
2022/03/30 10:58:53;;;;;;;6.75;4.38;;;;;;;18.86;45.81;99563.63;5045066;28;20036;-42
2022/03/30 11:01:24;;;;;;;16.17;4.53;;;;;;;18.84;46.34;99561.22;5047536;28;20044;-44
2022/03/30 11:04:05;;;;;;;18.35;5.05;;;;;;;18.90;47.76;99549.75;5029785;28;20717;-44
2022/03/30 11:06:34;;;;;;;14.82;5.63;;;;;;;19.04;48.60;99544.31;5048369;28;20064;-41
2022/03/30 11:09:01;;;;;;;10.65;5.85;;;;;;;19.11;48.92;99529.22;5040128;28;20103;-41
2022/03/30 11:11:40;;;;;;;8.73;4.90;;;;;;;19.09;48.66;99524.16;5044678;28;20053;-44
2022/03/30 11:14:45;;;;;;;8.73;4.30;;;;;;;19.02;48.23;99525.25;5044822;28;20033;-41
2022/03/30 11:17:15;;;;;;;7.13;3.70;;;;;;;18.99;47.84;99513.31;5040878;28;20020;-41
2022/03/30 11:19:47;;;;;;;11.00;5.15;;;;;;;18.96;47.83;99524.31;5045785;28;20115;-43
2022/03/30 11:22:21;;;;;;;11.85;5.53;;;;;;;18.97;47.61;99517.19;5046734;28;20196;-43
2022/03/30 11:25:05;;;;;;;10.93;3.77;;;;;;;18.93;47.77;99521.31;5056231;28;20128;-42
2022/03/30 11:27:30;;;;;;;8.57;4.28;;;;;;;18.96;47.67;99512.94;5055501;28;20318;-43
2022/03/30 11:29:58;;;;;;;6.75;3.45;;;;;;;18.96;47.89;99526.13;5055817;28;20163;-41
2022/03/30 11:32:24;;;;;;;12.88;6.03;;;;;;;19.03;49.02;99506.56;5060973;28;20075;-41
2022/03/30 11:34:57;;;;;;;33.95;10.32;;;;;;;19.12;50.29;99518.44;5060711;28;20392;-43
2022/03/30 11:37:31;;;;;;;40.67;14.00;;;;;;;19.21;51.24;99513.66;5056941;28;20111;-40
2022/03/30 11:40:17;;;;;;;58.90;24.20;;;;;;;19.31;51.38;99503.34;5058851;28;20071;-42
2022/03/30 11:42:55;;;;;;;29.13;14.05;;;;;;;19.40;50.62;99523.13;5056487;28;20102;-43